Time;durP1;ratioP1;P1;durP2;ratioP2;P2;SDS_P1;SDS_P2;PMS_P1;PMS_P2;Temp;Humidity;BMP_temperature;BMP_pressure;BME280_temperature;BME280_humidity;BME280_pressure;Samples;Min_cycle;Max_cycle;Signal;HPM_P1;HPM_P2
2022/12/17 13:08:02;;;;;;;15.80;11.57;;;-0.80;99.90;;;;;;5094644;28;20247;-66
2022/12/17 13:10:29;;;;;;;11.50;10.30;;;-0.70;99.90;;;;;;5093989;28;20581;-66
2022/12/17 13:12:57;;;;;;;9.77;9.10;;;-0.50;99.90;;;;;;5094385;28;20173;-66
2022/12/17 13:15:39;;;;;;;14.87;11.63;;;-0.40;99.90;;;;;;5093961;28;20201;-66
2022/12/17 13:18:32;;;;;;;12.93;10.37;;;-0.30;99.90;;;;;;5094403;28;20258;-66
2022/12/17 13:21:05;;;;;;;13.07;12.03;;;-0.20;99.90;;;;;;5082728;28;20190;-66
2022/12/17 13:23:35;;;;;;;11.10;10.23;;;-0.20;98.60;;;;;;5094229;28;20173;-66
2022/12/17 13:26:19;;;;;;;11.27;10.33;;;-0.20;94.00;;;;;;5092233;28;20192;-66
2022/12/17 13:28:53;;;;;;;13.70;11.40;;;-0.20;99.90;;;;;;5093860;28;20247;-66
2022/12/17 13:31:24;;;;;;;18.33;13.37;;;0.00;99.90;;;;;;5093350;28;20177;-67
2022/12/17 13:33:54;;;;;;;15.70;10.70;;;0.10;91.10;;;;;;5093579;28;20170;-67
2022/12/17 13:36:31;;;;;;;11.37;10.43;;;0.10;96.40;;;;;;5093351;28;20276;-67
2022/12/17 13:39:15;;;;;;;15.23;12.03;;;0.20;94.90;;;;;;5093598;28;20638;-67
2022/12/17 13:41:42;;;;;;;14.93;11.17;;;0.20;85.60;;;;;;5093655;28;20220;-66
2022/12/17 13:44:22;;;;;;;11.67;10.20;;;0.20;89.70;;;;;;5093369;28;20196;-67
2022/12/17 13:46:50;;;;;;;14.80;10.70;;;0.20;96.70;;;;;;5093640;28;20242;-67
2022/12/17 13:49:24;;;;;;;16.00;10.60;;;0.20;84.50;;;;;;5093202;28;20553;-66
2022/12/17 13:52:20;;;;;;;12.50;11.33;;;0.20;81.70;;;;;;5093497;28;20165;-66
2022/12/17 13:54:46;;;;;;;16.10;14.47;;;0.10;79.70;;;;;;5073185;28;20209;-66
2022/12/17 13:57:18;;;;;;;11.30;9.70;;;0.00;71.70;;;;;;5093892;28;20563;-66
2022/12/17 13:59:55;;;;;;;12.10;10.93;;;-0.20;58.80;;;;;;5093006;28;20177;-66
2022/12/17 14:02:24;;;;;;;13.63;10.87;;;-0.40;63.90;;;;;;5093303;28;20508;-66
2022/12/17 14:04:58;;;;;;;10.27;9.27;;;-0.60;74.80;;;;;;5093063;28;20593;-66
2022/12/17 14:07:25;;;;;;;14.03;10.33;;;-0.80;85.20;;;;;;5093145;28;20276;-66
2022/12/17 14:09:51;;;;;;;12.50;11.23;;;-0.90;95.00;;;;;;5092280;28;20244;-67
2022/12/17 14:12:22;;;;;;;11.43;10.50;;;-1.10;99.90;;;;;;5091973;28;20177;-67
2022/12/17 14:14:59;;;;;;;13.03;11.67;;;-1.20;99.90;;;;;;5093103;28;20205;-66
2022/12/17 14:17:42;;;;;;;11.83;10.80;;;-1.30;99.90;;;;;;5092938;28;20188;-66
2022/12/17 14:20:22;;;;;;;10.60;9.90;;;-1.50;99.90;;;;;;5092474;28;20153;-66
2022/12/17 14:23:19;;;;;;;18.20;11.40;;;-1.60;99.90;;;;;;5092907;28;20597;-66
2022/12/17 14:25:47;;;;;;;9.83;9.13;;;-1.70;99.90;;;;;;5083323;28;20537;-66
2022/12/17 14:28:28;;;;;;;10.20;9.10;;;-1.80;99.90;;;;;;5056790;22;20228;-66
2022/12/17 14:31:14;;;;;;;11.93;9.60;;;-1.80;99.90;;;;;;5009390;28;20177;-66
2022/12/17 14:33:42;;;;;;;12.03;10.47;;;-1.90;99.90;;;;;;5008528;28;20267;-65
2022/12/17 14:36:17;;;;;;;10.33;9.13;;;-2.00;99.90;;;;;;5009065;28;20212;-65
2022/12/17 14:39:28;;;;;;;9.53;8.60;;;-2.00;99.90;;;;;;5009559;28;20192;-65
2022/12/17 14:42:24;;;;;;;14.07;9.00;;;-2.10;99.90;;;;;;5008355;28;20652;-66
2022/12/17 14:44:58;;;;;;;13.70;8.37;;;-2.20;99.90;;;;;;5006290;28;20600;-65
2022/12/17 14:47:36;;;;;;;11.80;10.93;;;-2.20;99.90;;;;;;4988181;28;20563;-65
2022/12/17 14:50:22;;;;;;;9.27;8.77;;;-2.30;99.90;;;;;;4984879;28;20181;-65
2022/12/17 14:52:52;;;;;;;9.70;8.83;;;-2.30;99.90;;;;;;4970475;28;20682;-65
2022/12/17 14:55:26;;;;;;;10.80;9.77;;;-2.40;99.90;;;;;;4973416;28;20235;-66
2022/12/17 14:58:06;;;;;;;8.57;7.97;;;-2.40;99.90;;;;;;4988408;28;20241;-65
2022/12/17 15:00:32;;;;;;;9.37;8.63;;;-2.40;99.90;;;;;;4983093;28;20208;-66
2022/12/17 15:02:58;;;;;;;9.00;8.50;;;-2.50;99.90;;;;;;4969053;28;20616;-65
2022/12/17 15:05:23;;;;;;;17.83;10.03;;;-2.50;99.90;;;;;;4987497;28;20223;-66
2022/12/17 15:07:50;;;;;;;8.53;7.93;;;-2.60;99.90;;;;;;4989695;28;20228;-66
2022/12/17 15:10:19;;;;;;;12.27;9.93;;;-2.60;99.90;;;;;;5001795;28;20232;-67
2022/12/17 15:12:44;;;;;;;8.53;8.03;;;-2.70;99.90;;;;;;4984771;28;20177;-65
2022/12/17 15:15:14;;;;;;;9.87;8.67;;;-2.70;99.90;;;;;;4978158;28;20280;-65
2022/12/17 15:17:40;;;;;;;9.87;9.17;;;-2.80;99.90;;;;;;4990438;28;20189;-65
2022/12/17 15:20:11;;;;;;;11.17;9.43;;;-2.90;99.90;;;;;;4989323;28;20488;-65
2022/12/17 15:22:37;;;;;;;10.67;9.73;;;-2.90;99.90;;;;;;4969125;28;20185;-65
2022/12/17 15:25:03;;;;;;;12.43;10.00;;;-3.00;99.90;;;;;;4970369;28;20199;-65
2022/12/17 15:27:29;;;;;;;11.60;10.67;;;-3.10;99.90;;;;;;4987936;28;20224;-65
2022/12/17 15:29:54;;;;;;;10.87;10.07;;;-3.10;99.90;;;;;;4987829;28;20212;-65
2022/12/17 15:32:22;;;;;;;9.80;9.30;;;-3.20;99.90;;;;;;4972547;28;20178;-65
2022/12/17 15:34:49;;;;;;;11.50;10.77;;;-3.20;99.90;;;;;;4982220;28;20283;-65
2022/12/17 15:37:16;;;;;;;9.80;9.23;;;-3.20;99.90;;;;;;4988851;28;20201;-65
2022/12/17 15:39:42;;;;;;;10.87;8.67;;;-3.30;99.90;;;;;;4988276;28;20230;-64
2022/12/17 15:44:53;;;;;;;9.20;8.43;;;-3.40;99.90;;;;;;4973782;28;20602;-66
2022/12/17 15:47:18;;;;;;;10.93;9.93;;;-3.50;99.90;;;;;;4968219;28;20236;-66
2022/12/17 15:49:44;;;;;;;10.77;9.83;;;-3.50;99.90;;;;;;4982781;28;20193;-66
2022/12/17 15:52:13;;;;;;;9.60;9.03;;;-3.60;99.90;;;;;;4977218;28;20534;-65
2022/12/17 15:54:42;;;;;;;10.33;9.63;;;-3.60;99.90;;;;;;4969582;28;20562;-65
2022/12/17 15:57:08;;;;;;;10.00;9.17;;;-3.60;99.90;;;;;;4979727;28;20201;-66
2022/12/17 15:59:34;;;;;;;11.63;10.43;;;-3.60;99.90;;;;;;4988591;28;20173;-65
2022/12/17 16:02:00;;;;;;;9.37;8.80;;;-3.60;99.90;;;;;;4980081;28;20260;-65
2022/12/17 16:04:25;;;;;;;10.13;9.47;;;-3.70;99.90;;;;;;4969968;28;20185;-66
2022/12/17 16:06:51;;;;;;;13.83;11.30;;;-3.80;99.90;;;;;;4969395;28;20208;-65
2022/12/17 16:09:16;;;;;;;11.20;10.37;;;-3.90;99.90;;;;;;4979121;28;20642;-65
2022/12/17 16:11:42;;;;;;;12.10;10.87;;;-3.90;99.90;;;;;;4988005;28;20549;-65
2022/12/17 16:14:07;;;;;;;12.37;11.00;;;-4.00;99.90;;;;;;4988669;28;20165;-66
2022/12/17 16:16:33;;;;;;;10.40;9.60;;;-4.00;99.90;;;;;;4984328;28;20202;-66
2022/12/17 16:19:00;;;;;;;18.33;11.50;;;-4.00;99.90;;;;;;4969438;28;20162;-66
2022/12/17 16:21:26;;;;;;;14.40;9.23;;;-4.00;99.90;;;;;;4970153;28;20241;-65
2022/12/17 16:23:52;;;;;;;10.77;10.00;;;-4.00;99.90;;;;;;4987415;28;20208;-65
2022/12/17 16:26:18;;;;;;;14.27;11.60;;;-4.10;99.90;;;;;;4988103;28;20169;-66
2022/12/17 16:28:43;;;;;;;10.53;9.67;;;-4.20;99.90;;;;;;4967826;28;20307;-66
2022/12/17 16:31:14;;;;;;;10.17;9.47;;;-4.20;99.90;;;;;;4968912;28;20623;-66
2022/12/17 16:33:41;;;;;;;11.10;10.30;;;-4.30;99.90;;;;;;4987328;28;20727;-66
2022/12/17 16:36:10;;;;;;;11.23;10.50;;;-4.40;99.90;;;;;;4991390;28;20204;-65
2022/12/17 16:38:44;;;;;;;9.73;9.30;;;-4.40;99.90;;;;;;4974186;28;20198;-66
2022/12/17 16:41:09;;;;;;;13.33;11.57;;;-4.50;99.90;;;;;;4972074;28;20170;-66
2022/12/17 16:43:35;;;;;;;12.80;11.67;;;-4.50;99.90;;;;;;4988655;28;20712;-65
2022/12/17 16:46:01;;;;;;;14.50;13.33;;;-4.50;99.90;;;;;;4991592;28;20184;-65
2022/12/17 16:48:26;;;;;;;12.93;11.93;;;-4.50;99.90;;;;;;4976467;28;20201;-66
2022/12/17 16:50:52;;;;;;;12.80;11.90;;;-4.50;99.90;;;;;;4972158;28;20186;-66
2022/12/17 16:53:18;;;;;;;18.07;13.73;;;-4.60;99.90;;;;;;4985445;28;20181;-66
2022/12/17 16:55:48;;;;;;;16.07;14.77;;;-4.60;99.90;;;;;;4991863;28;20616;-66
2022/12/17 16:58:17;;;;;;;12.97;12.17;;;-4.60;99.90;;;;;;4979255;28;20228;-66
2022/12/17 17:00:45;;;;;;;12.70;12.00;;;-4.60;99.90;;;;;;4971941;28;20210;-66
2022/12/17 17:03:10;;;;;;;14.10;13.00;;;-4.70;99.90;;;;;;4982554;28;20177;-66
2022/12/17 17:05:38;;;;;;;13.30;12.47;;;-4.70;99.90;;;;;;4991556;28;20256;-68
2022/12/17 17:08:04;;;;;;;13.60;12.03;;;-4.70;99.90;;;;;;4980677;28;20207;-66
2022/12/17 17:10:30;;;;;;;13.37;12.37;;;-4.70;99.90;;;;;;4971496;28;20208;-66
2022/12/17 17:12:56;;;;;;;16.43;15.33;;;-4.80;99.90;;;;;;4979343;28;20259;-66
2022/12/17 17:15:22;;;;;;;18.27;15.80;;;-4.80;99.90;;;;;;4991127;28;20245;-65
2022/12/17 17:17:48;;;;;;;17.77;15.10;;;-4.80;99.90;;;;;;4985351;28;20225;-65
2022/12/17 17:20:14;;;;;;;12.83;12.00;;;-4.90;99.90;;;;;;4971300;28;20636;-65
2022/12/17 17:22:40;;;;;;;15.37;14.40;;;-5.00;99.90;;;;;;4975897;28;20201;-66
2022/12/17 17:25:06;;;;;;;16.63;15.00;;;-5.00;99.90;;;;;;4990709;28;20227;-65
2022/12/17 17:27:32;;;;;;;17.57;15.37;;;-5.10;99.90;;;;;;4988526;28;20308;-64
2022/12/17 17:29:57;;;;;;;23.77;16.03;;;-5.10;99.90;;;;;;4970052;28;20746;-65
2022/12/17 17:32:24;;;;;;;20.37;18.37;;;-5.10;99.90;;;;;;4976295;28;20185;-65
2022/12/17 17:34:49;;;;;;;19.83;18.50;;;-5.10;99.90;;;;;;4989886;28;20273;-66
2022/12/17 17:37:15;;;;;;;18.60;15.93;;;-5.10;99.90;;;;;;4986635;28;20205;-66
2022/12/17 17:39:41;;;;;;;14.90;13.57;;;-5.10;99.90;;;;;;4971815;28;20552;-66
2022/12/17 17:42:07;;;;;;;16.03;13.07;;;-5.20;99.90;;;;;;4973595;28;20643;-66
2022/12/17 17:44:33;;;;;;;13.23;12.20;;;-5.30;99.90;;;;;;4989604;28;20595;-65
2022/12/17 17:46:58;;;;;;;10.53;9.67;;;-5.40;99.90;;;;;;4986768;28;20615;-66
2022/12/17 17:49:24;;;;;;;11.67;10.70;;;-5.40;99.90;;;;;;4971069;28;20190;-66
2022/12/17 17:51:49;;;;;;;11.70;11.10;;;-5.40;99.90;;;;;;4972620;28;20683;-66
2022/12/17 17:54:15;;;;;;;11.67;10.17;;;-5.30;99.90;;;;;;4990503;28;20249;-65
2022/12/17 17:56:41;;;;;;;9.03;8.43;;;-5.30;99.90;;;;;;4989445;28;20205;-65
2022/12/17 17:59:10;;;;;;;11.63;9.47;;;-5.30;99.90;;;;;;4971290;28;20248;-66
2022/12/17 18:01:41;;;;;;;9.07;8.43;;;-5.30;99.90;;;;;;4969882;28;20200;-66
2022/12/17 18:04:10;;;;;;;10.27;9.77;;;-5.30;99.90;;;;;;4971127;28;20543;-65
2022/12/17 18:06:37;;;;;;;9.23;8.73;;;-4.90;99.90;;;;;;4970068;28;20187;-66
2022/12/17 18:09:03;;;;;;;12.13;11.07;;;-5.20;99.90;;;;;;4994437;28;20180;-65
2022/12/17 18:11:31;;;;;;;12.03;11.20;;;-5.10;99.90;;;;;;4997834;28;20207;-66
2022/12/17 18:13:58;;;;;;;11.90;11.30;;;-5.00;99.90;;;;;;4979905;28;20208;-66
2022/12/17 18:16:28;;;;;;;12.33;11.67;;;-5.00;99.90;;;;;;4971571;28;20246;-66
2022/12/17 18:18:59;;;;;;;10.90;10.23;;;-4.90;99.90;;;;;;4987711;28;20181;-66
2022/12/17 18:21:26;;;;;;;13.33;12.03;;;-4.90;99.90;;;;;;4990059;28;20176;-67
2022/12/17 18:24:02;;;;;;;11.43;10.87;;;-4.90;99.90;;;;;;4973326;28;20260;-66
2022/12/17 18:26:31;;;;;;;13.00;11.80;;;-4.90;99.90;;;;;;4970637;28;20230;-66
2022/12/17 18:29:01;;;;;;;11.33;10.77;;;-4.90;99.90;;;;;;4986546;28;20181;-66
2022/12/17 18:31:28;;;;;;;14.63;13.57;;;-4.90;99.90;;;;;;4989751;28;20164;-66
2022/12/17 18:33:59;;;;;;;13.87;12.97;;;-4.80;99.90;;;;;;4974772;28;20253;-65
2022/12/17 18:36:31;;;;;;;12.10;11.30;;;-4.80;99.90;;;;;;4970207;28;20205;-66
2022/12/17 18:38:58;;;;;;;13.00;12.23;;;-4.80;99.90;;;;;;4981383;28;20189;-66
2022/12/17 18:44:10;;;;;;;15.57;13.63;;;-4.70;99.90;;;;;;4984592;28;20209;-66
2022/12/17 18:46:36;;;;;;;13.60;12.80;;;-4.70;99.90;;;;;;4970250;28;20222;-67
2022/12/17 18:49:05;;;;;;;12.47;11.87;;;-4.80;99.90;;;;;;4984170;28;20188;-66
2022/12/17 18:51:32;;;;;;;11.10;10.60;;;-4.80;99.90;;;;;;4989803;28;20181;-66
2022/12/17 18:54:02;;;;;;;11.40;10.70;;;-4.90;99.90;;;;;;4976923;28;20651;-66
2022/12/17 18:56:28;;;;;;;11.30;10.03;;;-4.90;99.90;;;;;;4973022;28;20201;-66
2022/12/17 18:58:57;;;;;;;12.03;11.03;;;-4.90;99.90;;;;;;4969833;28;20219;-66
2022/12/17 19:01:25;;;;;;;12.53;11.63;;;-4.90;99.90;;;;;;4983186;28;20170;-65
2022/12/17 19:03:51;;;;;;;12.50;11.60;;;-4.90;99.90;;;;;;4982437;28;20177;-66
2022/12/17 19:06:18;;;;;;;12.13;10.97;;;-4.90;99.90;;;;;;4998541;28;20245;-66
2022/12/17 19:08:44;;;;;;;14.60;10.30;;;-4.80;99.90;;;;;;5007503;28;20192;-67
2022/12/17 19:11:11;;;;;;;10.37;9.77;;;-4.90;99.90;;;;;;4989087;28;20173;-66
2022/12/17 19:13:38;;;;;;;11.60;10.63;;;-4.80;99.90;;;;;;4989590;28;20558;-66
2022/12/17 19:16:13;;;;;;;11.33;10.33;;;-4.80;99.90;;;;;;4989395;28;20288;-67
2022/12/17 19:18:39;;;;;;;10.20;9.30;;;-4.80;99.90;;;;;;4989274;28;20184;-66
2022/12/17 19:21:06;;;;;;;13.50;12.33;;;-4.80;99.90;;;;;;4991776;28;20188;-66
2022/12/17 19:23:32;;;;;;;11.23;10.43;;;-4.80;99.90;;;;;;5007789;28;20315;-63
2022/12/17 19:26:17;;;;;;;13.23;11.97;;;-4.80;99.90;;;;;;5008730;28;20176;-66
2022/12/17 19:28:45;;;;;;;13.90;10.73;;;-4.80;99.90;;;;;;4973414;28;20254;-66
2022/12/17 19:31:11;;;;;;;10.87;9.93;;;-4.90;99.90;;;;;;4988563;28;20585;-66
2022/12/17 19:33:37;;;;;;;11.40;10.63;;;-4.90;99.90;;;;;;4986408;28;20182;-66
2022/12/17 19:36:06;;;;;;;11.83;10.93;;;-4.90;99.90;;;;;;4971892;28;20236;-66
2022/12/17 19:38:32;;;;;;;9.67;8.90;;;-4.90;99.90;;;;;;4985919;28;20700;-66
2022/12/17 19:41:10;;;;;;;12.47;11.47;;;-5.00;99.90;;;;;;4988797;28;20299;-66
2022/12/17 19:43:36;;;;;;;10.97;10.23;;;-5.00;99.90;;;;;;4971686;28;20655;-66
2022/12/17 19:46:04;;;;;;;11.00;10.30;;;-5.00;99.90;;;;;;4969699;28;20173;-67
2022/12/17 19:48:31;;;;;;;19.43;10.07;;;-5.00;99.90;;;;;;4972743;28;20210;-66
2022/12/17 19:50:57;;;;;;;10.43;9.60;;;-5.10;99.90;;;;;;4970499;28;20203;-66
2022/12/17 19:53:25;;;;;;;10.30;9.60;;;-5.10;99.90;;;;;;4984398;28;20189;-67
2022/12/17 19:55:55;;;;;;;10.50;9.67;;;-5.10;99.90;;;;;;4969764;28;20213;-66
2022/12/17 19:58:24;;;;;;;9.60;9.10;;;-5.10;99.90;;;;;;4975170;28;20201;-66
2022/12/17 20:00:51;;;;;;;11.70;10.77;;;-5.10;99.90;;;;;;4969156;28;20181;-66
2022/12/17 20:03:17;;;;;;;10.40;9.80;;;-5.10;99.90;;;;;;4982340;28;20544;-66
2022/12/17 20:05:44;;;;;;;9.93;9.10;;;-5.10;99.90;;;;;;5007252;28;20172;-66
2022/12/17 20:08:10;;;;;;;11.37;10.80;;;-5.10;99.90;;;;;;4990638;28;20677;-67
2022/12/17 20:10:35;;;;;;;8.83;8.40;;;-5.10;99.90;;;;;;5007152;28;20234;-66
2022/12/17 20:13:01;;;;;;;10.37;9.77;;;-5.10;99.90;;;;;;5008541;28;20177;-66
2022/12/17 20:15:27;;;;;;;12.13;11.53;;;-5.10;99.90;;;;;;4992114;28;20224;-66
2022/12/17 20:17:52;;;;;;;12.23;10.77;;;-5.00;99.90;;;;;;4992181;28;20193;-65
2022/12/17 20:20:18;;;;;;;10.47;9.87;;;-5.10;99.90;;;;;;4991427;28;20204;-67
2022/12/17 20:22:43;;;;;;;9.37;8.97;;;-5.00;99.90;;;;;;4984084;28;20219;-66
2022/12/17 20:25:10;;;;;;;10.80;10.10;;;-5.00;99.90;;;;;;4983776;28;20272;-66
2022/12/17 20:27:36;;;;;;;11.27;10.63;;;-5.00;99.90;;;;;;4971635;28;20278;-65
2022/12/17 20:30:03;;;;;;;10.83;10.20;;;-5.00;99.90;;;;;;4972474;28;20574;-65
2022/12/17 20:32:28;;;;;;;11.80;11.00;;;-5.00;99.90;;;;;;4990923;28;20650;-65
2022/12/17 20:34:54;;;;;;;10.30;9.77;;;-5.00;99.90;;;;;;4991935;28;20208;-65
2022/12/17 20:37:20;;;;;;;11.17;10.20;;;-4.90;99.90;;;;;;4973228;28;20205;-65
2022/12/17 20:39:45;;;;;;;10.77;10.17;;;-4.90;99.90;;;;;;4985534;28;20241;-65
2022/12/17 20:42:11;;;;;;;12.33;11.63;;;-4.90;99.90;;;;;;4990450;28;20622;-65
2022/12/17 20:44:36;;;;;;;11.40;10.57;;;-4.90;99.90;;;;;;4979641;28;20565;-65
2022/12/17 20:47:02;;;;;;;12.97;11.73;;;-5.00;99.90;;;;;;4972164;28;20200;-65
2022/12/17 20:49:28;;;;;;;10.73;10.17;;;-5.00;99.90;;;;;;4980275;28;20184;-66
2022/12/17 20:51:53;;;;;;;11.43;10.63;;;-5.00;99.90;;;;;;4990411;28;20214;-65
2022/12/17 20:54:19;;;;;;;9.80;9.30;;;-5.00;99.90;;;;;;4982797;28;20185;-65
2022/12/17 20:56:44;;;;;;;10.57;9.97;;;-5.00;99.90;;;;;;4971995;28;20293;-65
2022/12/17 20:59:15;;;;;;;11.87;10.73;;;-5.10;99.90;;;;;;4978277;28;20662;-66
2022/12/17 21:01:42;;;;;;;11.57;10.50;;;-5.10;99.90;;;;;;4991395;28;20184;-65
2022/12/17 21:04:07;;;;;;;15.43;10.63;;;-5.10;99.90;;;;;;4984233;28;20174;-65
2022/12/17 21:06:41;;;;;;;11.33;10.60;;;-5.10;99.90;;;;;;4972092;28;20727;-65
2022/12/17 21:09:07;;;;;;;10.33;9.73;;;-5.10;99.90;;;;;;4976712;28;20719;-65
2022/12/17 21:11:34;;;;;;;11.80;11.03;;;-5.20;99.90;;;;;;4991270;28;20177;-65
2022/12/17 21:14:03;;;;;;;12.13;11.10;;;-5.20;99.90;;;;;;4987486;28;20562;-65
2022/12/17 21:16:30;;;;;;;14.03;12.70;;;-5.20;99.90;;;;;;4971422;28;20679;-65
2022/12/17 21:18:57;;;;;;;11.57;10.47;;;-5.20;99.90;;;;;;4974009;28;20186;-65
2022/12/17 21:21:25;;;;;;;11.23;10.47;;;-5.20;99.90;;;;;;4990389;28;20184;-65
2022/12/17 21:23:51;;;;;;;12.23;11.23;;;-5.20;99.90;;;;;;4984902;28;20181;-65
2022/12/17 21:26:22;;;;;;;11.57;10.67;;;-5.20;99.90;;;;;;4971538;28;20186;-65
2022/12/17 21:28:50;;;;;;;10.43;9.57;;;-5.20;99.90;;;;;;4976202;28;20561;-65
2022/12/17 21:31:31;;;;;;;11.97;11.27;;;-5.10;99.90;;;;;;4990623;28;20238;-65
2022/12/17 21:33:59;;;;;;;10.77;9.87;;;-5.10;99.90;;;;;;4985152;28;20593;-65
2022/12/17 21:36:26;;;;;;;11.83;11.03;;;-5.10;99.90;;;;;;4971363;28;20205;-65
2022/12/17 21:38:52;;;;;;;11.20;10.10;;;-5.10;99.90;;;;;;4975585;28;20203;-65
2022/12/17 21:41:21;;;;;;;11.27;10.47;;;-5.10;99.90;;;;;;4990528;28;20177;-65
2022/12/17 21:43:50;;;;;;;11.57;10.80;;;-5.00;99.90;;;;;;4987416;28;20734;-67
2022/12/17 21:46:16;;;;;;;10.50;9.73;;;-5.00;99.90;;;;;;4971485;28;20188;-65
2022/12/17 21:48:42;;;;;;;11.00;10.20;;;-5.00;99.90;;;;;;4972986;28;20205;-65
2022/12/17 21:51:10;;;;;;;10.00;9.50;;;-5.00;99.90;;;;;;4990447;28;20173;-65
2022/12/17 21:53:41;;;;;;;12.50;11.47;;;-5.10;99.90;;;;;;4989897;28;20174;-65
2022/12/17 21:56:10;;;;;;;10.13;9.53;;;-5.10;99.90;;;;;;4971343;28;20205;-67
2022/12/17 21:58:36;;;;;;;10.07;9.47;;;-5.10;99.90;;;;;;4978782;28;20200;-66
2022/12/17 22:01:19;;;;;;;11.17;10.43;;;-5.10;99.90;;;;;;4990376;28;20609;-66
2022/12/17 22:03:46;;;;;;;11.20;10.30;;;-5.10;99.90;;;;;;4982113;28;20216;-66
2022/12/17 22:06:14;;;;;;;14.10;13.10;;;-5.10;99.90;;;;;;4970967;28;20185;-65
2022/12/17 22:08:40;;;;;;;10.93;10.13;;;-5.10;99.90;;;;;;4977449;28;20217;-66
2022/12/17 22:11:18;;;;;;;10.37;9.83;;;-5.10;99.90;;;;;;4988860;28;20181;-66
2022/12/17 22:14:04;;;;;;;9.30;8.90;;;-5.10;99.90;;;;;;4988785;28;20180;-65
2022/12/17 22:16:42;;;;;;;11.40;10.37;;;-4.90;99.90;;;;;;4988835;28;20221;-65
2022/12/17 22:19:13;;;;;;;11.00;10.37;;;-5.00;99.90;;;;;;4988458;28;20263;-66
2022/12/17 22:21:41;;;;;;;9.97;9.37;;;-5.00;99.90;;;;;;4990161;28;20202;-65
2022/12/17 22:24:18;;;;;;;9.80;9.37;;;-5.00;99.90;;;;;;4984333;28;20181;-65
2022/12/17 22:26:44;;;;;;;9.93;9.50;;;-4.50;99.90;;;;;;4999493;28;20264;-65
2022/12/17 22:29:10;;;;;;;10.53;9.73;;;-5.00;99.90;;;;;;5009468;28;20275;-66
2022/12/17 22:34:20;;;;;;;10.07;9.53;;;-5.00;99.90;;;;;;4998878;28;20203;-66
2022/12/17 22:36:46;;;;;;;10.07;9.30;;;-5.00;99.90;;;;;;4989855;28;20209;-66
2022/12/17 22:39:13;;;;;;;10.60;10.00;;;-5.00;99.90;;;;;;4981904;28;20203;-66
2022/12/17 22:44:25;;;;;;;9.93;9.47;;;-5.00;99.90;;;;;;4979144;28;20207;-66
2022/12/17 22:46:51;;;;;;;11.67;10.90;;;-5.00;99.90;;;;;;4989862;28;20197;-66
2022/12/17 22:49:17;;;;;;;10.07;9.57;;;-5.00;99.90;;;;;;4982284;28;20564;-65
2022/12/17 22:51:43;;;;;;;10.23;9.73;;;-5.00;99.90;;;;;;4970471;28;20182;-65
2022/12/17 22:54:10;;;;;;;10.13;9.50;;;-5.00;99.90;;;;;;4975768;28;20181;-65
2022/12/17 22:56:37;;;;;;;10.03;9.20;;;-5.20;99.90;;;;;;4988158;28;20291;-65
2022/12/17 22:59:03;;;;;;;9.90;9.40;;;-5.10;99.90;;;;;;4985276;28;20174;-65
2022/12/17 23:01:29;;;;;;;10.10;9.50;;;-5.00;99.90;;;;;;4970061;28;20256;-65
2022/12/17 23:03:56;;;;;;;10.00;9.43;;;-5.10;99.90;;;;;;4972993;28;20880;-65
2022/12/17 23:06:22;;;;;;;9.97;9.57;;;-5.10;99.90;;;;;;4989935;28;20532;-65
2022/12/17 23:08:48;;;;;;;10.10;9.60;;;-5.10;99.90;;;;;;4975773;28;20202;-66
2022/12/17 23:11:16;;;;;;;10.00;9.10;;;-5.10;99.90;;;;;;4969892;28;20566;-65
2022/12/17 23:13:42;;;;;;;9.97;9.37;;;-5.10;99.90;;;;;;4982201;28;20189;-65
2022/12/17 23:16:11;;;;;;;9.23;8.73;;;-5.20;99.90;;;;;;4989503;28;20295;-65
2022/12/17 23:18:38;;;;;;;9.03;8.53;;;-5.20;99.90;;;;;;4977943;28;20295;-65
2022/12/17 23:21:12;;;;;;;8.83;8.43;;;-5.20;99.90;;;;;;4969773;28;20173;-65
2022/12/17 23:23:38;;;;;;;9.80;9.40;;;-5.20;99.90;;;;;;4985018;28;20625;-66
2022/12/17 23:26:16;;;;;;;8.77;8.37;;;-5.30;99.90;;;;;;4989470;28;20185;-65
2022/12/17 23:28:42;;;;;;;9.40;8.90;;;-5.30;99.90;;;;;;4972912;28;20227;-65
2022/12/17 23:31:10;;;;;;;8.07;7.57;;;-5.30;99.90;;;;;;4970721;28;20181;-66
2022/12/17 23:33:36;;;;;;;15.60;9.97;;;-5.30;99.90;;;;;;4969944;28;20645;-65
2022/12/17 23:36:10;;;;;;;9.73;9.10;;;-5.30;99.90;;;;;;4972989;28;20648;-65
2022/12/17 23:38:37;;;;;;;10.00;9.40;;;-5.30;99.90;;;;;;4988980;28;20573;-65
2022/12/17 23:41:13;;;;;;;9.93;9.40;;;-5.30;99.90;;;;;;4984717;28;20170;-65
2022/12/17 23:43:39;;;;;;;9.90;9.07;;;-5.30;99.90;;;;;;4969663;28;20181;-65
2022/12/17 23:46:06;;;;;;;10.03;9.37;;;-5.30;99.90;;;;;;4970716;28;20718;-65
2022/12/17 23:48:34;;;;;;;9.30;8.80;;;-5.40;99.90;;;;;;4969511;28;20209;-65
2022/12/17 23:51:00;;;;;;;9.80;9.00;;;-5.40;99.90;;;;;;4972010;28;20185;-66
2022/12/17 23:53:29;;;;;;;8.50;8.10;;;-5.40;99.90;;;;;;4988976;28;20187;-66
2022/12/17 23:56:02;;;;;;;11.63;10.73;;;-5.40;99.90;;;;;;4987424;28;20216;-66
2022/12/17 23:58:28;;;;;;;9.90;9.33;;;-5.40;99.90;;;;;;4969432;28;20608;-66
